createdAt,value
2018-12-24T00:03:03.475Z,98890.23
2018-12-24T00:05:45.640Z,98896.16
2018-12-24T00:07:54.900Z,98895.25
2018-12-24T00:10:35.230Z,98894.33
2018-12-24T00:13:30.498Z,98898.61
2018-12-24T00:15:20.310Z,98900.44
2018-12-24T00:17:27.003Z,98901.20
2018-12-24T00:19:35.463Z,98914.33
2018-12-24T00:21:43.169Z,98917.52
2018-12-24T00:23:50.830Z,98921.78
2018-12-24T00:25:59.457Z,98917.95
2018-12-24T00:28:07.004Z,98918.41
2018-12-24T00:30:14.741Z,98917.66
2018-12-24T00:32:22.557Z,98924.84
2018-12-24T00:34:30.244Z,98920.08
2018-12-24T00:36:38.160Z,98919.80
2018-12-24T00:38:46.091Z,98923.09
2018-12-24T00:40:54.359Z,98918.60
2018-12-24T00:43:01.928Z,98925.81
2018-12-24T00:45:09.543Z,98924.92
2018-12-24T00:47:17.378Z,98926.12
2018-12-24T00:49:25.017Z,98929.45
2018-12-24T00:51:33.263Z,98929.31
2018-12-24T00:53:40.926Z,98920.48
2018-12-24T00:55:48.628Z,98925.23
2018-12-24T00:57:56.366Z,98935.59
2018-12-24T01:00:04.004Z,98931.00
2018-12-24T01:02:11.494Z,98925.33
2018-12-24T01:04:19.002Z,98942.34
2018-12-24T01:06:26.569Z,98942.34
2018-12-24T01:08:34.932Z,98939.20
2018-12-24T01:10:43.619Z,98952.13
2018-12-24T01:12:51.134Z,98952.66
2018-12-24T01:14:58.758Z,98952.20
2018-12-24T01:17:06.572Z,98959.64
2018-12-24T01:19:14.303Z,98953.50
2018-12-24T01:21:21.889Z,98963.87
2018-12-24T01:23:29.884Z,98968.16
2018-12-24T01:25:37.041Z,98971.93
2018-12-24T01:27:44.597Z,98969.82
2018-12-24T01:29:52.402Z,98965.16
2018-12-24T01:32:00.047Z,98968.92
2018-12-24T01:34:08.543Z,98967.38
2018-12-24T01:36:16.887Z,98974.87
2018-12-24T01:38:24.637Z,98975.22
2018-12-24T01:40:32.317Z,98982.82
2018-12-24T01:42:39.954Z,98976.24
2018-12-24T01:44:47.979Z,98982.14
2018-12-24T01:46:56.022Z,98977.00
2018-12-24T01:49:04.233Z,98975.64
2018-12-24T01:51:11.980Z,98985.24
2018-12-24T01:53:19.708Z,98981.78
2018-12-24T01:55:27.255Z,98972.95
2018-12-24T01:57:34.775Z,98973.39
2018-12-24T02:00:49.593Z,98979.55
2018-12-24T02:02:56.733Z,98985.75
2018-12-24T02:05:04.051Z,98993.31
2018-12-24T02:07:11.525Z,99010.34
2018-12-24T02:09:19.444Z,99020.34
2018-12-24T02:11:26.671Z,99005.95
2018-12-24T02:13:33.705Z,99006.60
2018-12-24T02:15:40.816Z,99007.20
2018-12-24T02:17:47.929Z,99013.76
2018-12-24T02:19:55.097Z,99006.66
2018-12-24T02:22:02.877Z,99015.16
2018-12-24T02:24:10.093Z,99019.64
2018-12-24T02:26:18.289Z,99016.59
2018-12-24T02:28:25.408Z,99014.33
2018-12-24T02:30:32.662Z,99018.54
2018-12-24T02:32:39.870Z,99016.24
2018-12-24T02:34:47.354Z,99010.41
2018-12-24T02:36:54.780Z,99016.09
2018-12-24T02:39:02.484Z,99016.30
2018-12-24T02:41:09.636Z,99024.45
2018-12-24T02:43:16.991Z,99029.12
2018-12-24T02:45:24.562Z,99033.19
2018-12-24T02:47:31.694Z,99038.61
2018-12-24T02:49:38.946Z,99031.42
2018-12-24T02:51:46.303Z,99037.94
2018-12-24T02:53:55.129Z,99035.31
2018-12-24T02:56:02.237Z,99036.09
2018-12-24T02:58:10.299Z,99046.68
2018-12-24T03:00:17.952Z,99041.92
2018-12-24T03:02:25.655Z,99041.62
2018-12-24T03:05:17.563Z,99039.08
2018-12-24T03:07:16.452Z,99042.16
2018-12-24T03:09:46.767Z,99039.30
2018-12-24T03:11:58.185Z,99041.80
2018-12-24T03:14:20.963Z,99048.41
2018-12-24T03:16:28.498Z,99049.53
2018-12-24T03:19:29.559Z,99051.06
2018-12-24T03:21:36.938Z,99054.73
2018-12-24T03:23:57.015Z,99047.87
2018-12-24T03:26:10.967Z,99044.73
2018-12-24T03:28:35.545Z,99042.20
2018-12-24T03:31:00.103Z,99053.81
2018-12-24T03:33:07.948Z,99049.02
2018-12-24T03:35:15.264Z,99053.67
2018-12-24T03:37:34.331Z,99063.81
2018-12-24T03:39:42.211Z,99053.80
2018-12-24T03:41:49.438Z,99056.14
2018-12-24T03:43:57.009Z,99056.70
2018-12-24T03:46:13.473Z,99058.77
2018-12-24T03:50:46.089Z,99064.13
2018-12-24T03:52:54.281Z,99059.62
2018-12-24T03:55:01.648Z,99064.95
2018-12-24T03:57:08.905Z,99068.88
2018-12-24T03:59:29.140Z,99071.66
2018-12-24T04:01:37.286Z,99061.62
2018-12-24T04:03:45.731Z,99069.15
2018-12-24T04:06:04.649Z,99060.52
2018-12-24T04:08:13.173Z,99057.90
2018-12-24T04:10:53.830Z,99065.84
2018-12-24T04:13:10.982Z,99065.12
2018-12-24T04:15:18.991Z,99070.69
2018-12-24T04:17:26.819Z,99068.05
2018-12-24T04:19:34.190Z,99070.28
2018-12-24T04:21:41.478Z,99075.71
2018-12-24T04:23:48.848Z,99061.86
2018-12-24T04:25:55.934Z,99065.17
2018-12-24T04:28:03.203Z,99071.42
2018-12-24T04:30:11.158Z,99067.06
2018-12-24T04:32:18.443Z,99071.41
2018-12-24T04:34:25.739Z,99057.34
2018-12-24T04:36:33.176Z,99064.33
2018-12-24T04:38:41.567Z,99061.64
2018-12-24T04:40:49.193Z,99066.70
2018-12-24T04:42:56.536Z,99058.91
2018-12-24T04:45:04.285Z,99064.13
2018-12-24T04:47:12.210Z,99068.72
2018-12-24T04:49:21.018Z,99068.55
2018-12-24T04:51:29.175Z,99070.59
2018-12-24T04:53:36.904Z,99072.69
2018-12-24T04:55:44.734Z,99083.36
2018-12-24T04:57:52.610Z,99087.36
2018-12-24T05:00:00.406Z,99098.58
2018-12-24T05:02:08.223Z,99086.48
2018-12-24T05:04:15.483Z,99081.59
2018-12-24T05:06:23.700Z,99077.27
2018-12-24T05:08:30.806Z,99082.80
2018-12-24T05:10:38.811Z,99070.13
2018-12-24T05:12:45.989Z,99079.16
2018-12-24T05:14:53.463Z,99078.63
2018-12-24T05:17:00.690Z,99080.08
2018-12-24T05:19:08.023Z,99081.05
2018-12-24T05:21:15.402Z,99082.19
2018-12-24T05:23:22.634Z,99073.53
2018-12-24T05:25:29.832Z,99077.28
2018-12-24T05:27:37.611Z,99075.11
2018-12-24T05:29:44.774Z,99066.47
2018-12-24T05:31:52.960Z,99064.20
2018-12-24T05:34:00.052Z,99064.80
2018-12-24T05:36:07.369Z,99065.23
2018-12-24T05:38:15.242Z,99062.33
2018-12-24T05:40:22.494Z,99064.05
2018-12-24T05:42:29.809Z,99063.01
2018-12-24T05:44:38.614Z,99063.31
2018-12-24T05:46:45.733Z,99056.25
2018-12-24T05:48:53.057Z,99060.14
2018-12-24T05:51:01.133Z,99058.05
2018-12-24T05:53:08.320Z,99059.18
2018-12-24T05:57:27.896Z,99064.81
2018-12-24T05:59:35.415Z,99061.89
2018-12-24T06:01:42.656Z,99060.35
2018-12-24T06:06:04.014Z,99067.94
2018-12-24T06:08:11.081Z,99066.84
2018-12-24T06:10:18.727Z,99066.02
2018-12-24T06:12:25.724Z,99063.41
2018-12-24T06:14:32.417Z,99067.01
2018-12-24T06:16:39.738Z,99070.75
2018-12-24T06:18:47.087Z,99069.54
2018-12-24T06:20:54.326Z,98909.05
2018-12-24T06:23:01.619Z,99071.53
2018-12-24T06:25:09.539Z,99070.11
2018-12-24T06:27:16.830Z,99067.12
2018-12-24T06:29:24.412Z,99075.91
2018-12-24T06:31:32.453Z,99071.70
2018-12-24T06:33:39.430Z,99074.52
2018-12-24T06:35:46.703Z,99073.31
2018-12-24T06:37:54.713Z,99075.84
2018-12-24T06:40:02.307Z,99089.15
2018-12-24T06:42:09.484Z,99088.75
2018-12-24T06:44:16.466Z,99096.13
2018-12-24T06:46:23.719Z,99096.56
2018-12-24T06:48:30.919Z,99103.42
2018-12-24T06:50:38.704Z,99097.84
2018-12-24T06:52:45.840Z,99099.31
2018-12-24T06:54:53.072Z,99102.85
2018-12-24T06:57:01.437Z,99109.95
2018-12-24T06:59:08.405Z,99118.77
2018-12-24T07:01:16.247Z,99128.57
2018-12-24T07:03:23.443Z,99127.00
2018-12-24T07:05:30.743Z,99129.52
2018-12-24T07:07:38.129Z,99134.19
2018-12-24T07:09:46.031Z,99131.18
2018-12-24T07:11:53.285Z,99132.92
2018-12-24T07:14:00.619Z,99135.00
2018-12-24T07:16:07.911Z,99141.44
2018-12-24T07:18:15.301Z,99142.19
2018-12-24T07:20:23.062Z,99141.64
2018-12-24T07:22:30.173Z,99150.91
2018-12-24T07:24:37.304Z,99158.01
2018-12-24T07:26:45.040Z,99154.86
2018-12-24T07:28:58.982Z,99152.55
2018-12-24T07:31:02.124Z,99164.51
2018-12-24T07:33:09.598Z,99168.97
2018-12-24T07:35:16.814Z,99178.05
2018-12-24T07:37:23.944Z,99176.17
2018-12-24T07:39:31.760Z,99168.58
2018-12-24T07:41:39.187Z,99182.95
2018-12-24T07:43:46.212Z,99184.12
2018-12-24T07:45:53.392Z,99181.02
2018-12-24T07:48:00.611Z,99183.26
2018-12-24T07:50:07.730Z,99187.13
2018-12-24T07:52:14.904Z,99198.78
2018-12-24T07:54:22.254Z,99206.38
2018-12-24T07:56:30.734Z,99197.00
2018-12-24T07:58:39.483Z,99206.38
2018-12-24T08:00:46.800Z,99208.78
2018-12-24T08:02:53.957Z,99202.75
2018-12-24T08:05:01.210Z,99209.50
2018-12-24T08:07:08.927Z,99212.72
2018-12-24T08:09:16.318Z,99215.44
2018-12-24T08:11:24.022Z,99200.02
2018-12-24T08:13:31.168Z,99205.34
2018-12-24T08:15:38.867Z,99203.56
2018-12-24T08:17:45.966Z,99213.55
2018-12-24T08:19:54.246Z,99214.38
2018-12-24T08:22:01.418Z,99212.06
2018-12-24T08:24:08.682Z,99226.92
2018-12-24T08:26:15.959Z,99218.19
2018-12-24T08:28:22.984Z,99216.77
2018-12-24T08:30:30.162Z,99210.55
2018-12-24T08:32:37.372Z,99221.06
2018-12-24T08:34:45.432Z,99224.37
2018-12-24T08:36:52.654Z,99222.75
2018-12-24T08:39:00.243Z,99226.60
2018-12-24T08:41:07.577Z,99221.16
2018-12-24T08:43:14.912Z,99223.83
2018-12-24T08:45:22.279Z,99216.00
2018-12-24T08:47:29.467Z,99216.08
2018-12-24T08:49:36.609Z,99210.19
2018-12-24T08:51:43.727Z,99200.62
2018-12-24T08:53:50.929Z,99203.63
2018-12-24T08:55:58.296Z,99202.90
2018-12-24T08:58:05.344Z,99204.38
2018-12-24T09:00:14.051Z,99208.84
2018-12-24T09:02:21.354Z,99220.54
2018-12-24T09:04:28.678Z,99217.61
2018-12-24T09:06:36.193Z,99221.98
2018-12-24T09:08:43.241Z,99223.89
2018-12-24T09:10:50.541Z,99226.38
2018-12-24T09:12:57.856Z,99217.95
2018-12-24T09:15:05.775Z,99230.25
2018-12-24T09:17:13.507Z,99226.16
2018-12-24T09:19:20.685Z,99222.00
2018-12-24T09:21:28.156Z,99242.61
2018-12-24T09:23:35.498Z,99237.38
2018-12-24T09:25:42.887Z,99234.67
2018-12-24T09:27:49.735Z,99236.44
2018-12-24T09:29:56.962Z,99236.03
2018-12-24T09:32:04.228Z,99236.45
2018-12-24T09:34:11.600Z,99241.02
2018-12-24T09:36:18.937Z,99235.91
2018-12-24T09:38:25.953Z,99236.24
2018-12-24T09:40:33.050Z,99236.35
2018-12-24T09:42:40.167Z,99242.30
2018-12-24T09:44:47.529Z,99249.27
2018-12-24T09:46:54.471Z,99243.24
2018-12-24T09:49:02.278Z,99237.09
2018-12-24T09:51:10.264Z,99227.17
2018-12-24T09:53:17.451Z,99225.03
2018-12-24T09:55:24.712Z,99212.02
2018-12-24T09:57:32.479Z,99213.91
2018-12-24T09:59:40.267Z,99218.48
2018-12-24T10:01:47.306Z,99216.44
2018-12-24T10:04:02.807Z,99215.09
2018-12-24T10:06:13.442Z,99213.12
2018-12-24T10:08:22.808Z,99210.02
2018-12-24T10:10:29.992Z,99221.38
2018-12-24T10:12:37.146Z,99221.89
2018-12-24T10:14:45.166Z,99223.67
2018-12-24T10:16:52.254Z,99235.20
2018-12-24T10:19:00.314Z,99234.98
2018-12-24T10:21:08.116Z,99231.05
2018-12-24T10:23:15.181Z,99231.56
2018-12-24T10:25:22.966Z,99232.07
2018-12-24T10:27:30.199Z,99241.66
2018-12-24T10:29:37.384Z,99233.53
2018-12-24T10:31:45.269Z,99253.42
2018-12-24T10:33:53.244Z,99244.77
2018-12-24T10:36:00.261Z,99254.27
2018-12-24T10:38:08.117Z,99258.30
2018-12-24T10:40:19.527Z,99260.62
2018-12-24T10:42:27.197Z,99254.50
2018-12-24T10:44:34.294Z,99258.02
2018-12-24T10:46:41.408Z,99265.30
2018-12-24T10:48:49.238Z,99270.17
2018-12-24T10:50:56.954Z,99274.01
2018-12-24T10:53:04.603Z,99275.76
2018-12-24T10:55:12.311Z,99237.42
2018-12-24T10:57:19.337Z,99272.75
2018-12-24T10:59:26.579Z,99283.35
2018-12-24T11:01:33.937Z,99279.41
2018-12-24T11:03:41.855Z,99283.02
2018-12-24T11:05:49.122Z,99292.69
2018-12-24T11:07:56.419Z,99294.44
2018-12-24T11:10:03.496Z,99305.88
2018-12-24T11:12:11.726Z,99310.27
2018-12-24T11:14:19.063Z,99311.73
2018-12-24T11:16:26.367Z,99306.47
2018-12-24T11:18:34.412Z,99315.64
2018-12-24T11:20:41.912Z,99324.19
2018-12-24T11:22:48.818Z,99330.87
2018-12-24T11:24:56.143Z,99323.88
2018-12-24T11:27:03.385Z,99335.74
2018-12-24T11:29:10.457Z,99334.08
2018-12-24T11:31:18.204Z,99336.24
2018-12-24T11:33:25.227Z,99341.66
2018-12-24T11:35:32.441Z,99340.59
2018-12-24T11:37:39.643Z,99337.97
2018-12-24T11:39:47.125Z,99336.52
2018-12-24T11:41:54.185Z,99329.62
2018-12-24T11:44:01.326Z,99325.67
2018-12-24T11:46:09.139Z,99323.45
2018-12-24T11:48:16.365Z,99321.34
2018-12-24T11:50:23.355Z,99317.59
2018-12-24T11:52:30.644Z,99326.53
2018-12-24T11:54:38.606Z,99320.71
2018-12-24T11:56:45.926Z,99313.27
2018-12-24T11:58:54.098Z,99310.04
2018-12-24T12:01:01.226Z,99310.84
2018-12-24T12:03:09.309Z,99308.19
2018-12-24T12:05:16.293Z,99316.45
2018-12-24T12:07:23.406Z,99321.96
2018-12-24T12:09:30.834Z,99318.91
2018-12-24T12:11:38.369Z,99331.02
2018-12-24T12:13:45.381Z,99327.50
2018-12-24T12:15:52.763Z,99334.91
2018-12-24T12:17:59.964Z,99342.16
2018-12-24T12:20:07.274Z,99348.72
2018-12-24T12:22:14.655Z,99342.45
2018-12-24T12:24:21.768Z,99347.88
2018-12-24T12:26:30.342Z,99347.16
2018-12-24T12:28:37.667Z,99345.81
2018-12-24T12:30:44.784Z,99348.80
2018-12-24T12:32:51.825Z,99348.94
2018-12-24T12:34:59.163Z,99352.78
2018-12-24T12:37:06.855Z,99353.27
2018-12-24T12:39:13.934Z,99360.58
2018-12-24T12:41:21.475Z,99364.85
2018-12-24T12:43:28.520Z,99374.86
2018-12-24T12:45:35.811Z,99374.86
2018-12-24T12:47:43.197Z,99379.14
2018-12-24T12:49:50.227Z,99376.52
2018-12-24T12:51:57.414Z,99381.50
2018-12-24T12:54:05.171Z,99384.52
2018-12-24T12:56:12.288Z,99383.86
2018-12-24T12:58:19.296Z,99378.21
2018-12-24T13:00:27.046Z,99374.35
2018-12-24T13:02:34.333Z,99368.80
2018-12-24T13:04:41.645Z,99377.23
2018-12-24T13:06:48.681Z,99373.25
2018-12-24T13:08:55.989Z,99368.34
2018-12-24T13:11:03.333Z,99366.32
2018-12-24T13:13:11.010Z,99370.84
2018-12-24T13:15:18.365Z,99375.22
2018-12-24T13:17:25.443Z,99385.39
2018-12-24T13:19:33.247Z,99386.74
2018-12-24T13:21:41.968Z,99379.94
2018-12-24T13:23:49.502Z,99385.14
2018-12-24T13:26:16.187Z,99397.55
2018-12-24T13:28:24.080Z,99395.14
2018-12-24T13:30:31.414Z,99396.77
2018-12-24T13:32:39.103Z,99401.91
2018-12-24T13:34:46.127Z,99399.09
2018-12-24T13:36:53.287Z,99393.78
2018-12-24T13:39:00.505Z,99387.80
2018-12-24T13:41:08.503Z,99394.56
2018-12-24T13:43:15.824Z,99398.72
2018-12-24T13:45:23.173Z,99407.16
2018-12-24T13:47:30.614Z,99410.70
2018-12-24T13:49:37.644Z,99415.81
2018-12-24T13:51:45.004Z,99418.23
2018-12-24T13:53:52.251Z,99420.07
2018-12-24T13:55:59.865Z,99417.75
2018-12-24T13:58:07.162Z,99427.23
2018-12-24T14:00:15.315Z,99439.61
2018-12-24T14:02:22.611Z,99446.34
2018-12-24T14:04:30.724Z,99442.38
2018-12-24T14:06:38.766Z,99437.55
2018-12-24T14:08:46.018Z,99432.89
2018-12-24T14:10:53.453Z,99444.94
2018-12-24T14:13:01.387Z,99446.48
2018-12-24T14:15:09.122Z,99449.02
2018-12-24T14:17:17.123Z,99447.18
2018-12-24T14:19:24.371Z,99458.95
2018-12-24T14:21:31.439Z,99457.52
2018-12-24T14:23:39.271Z,99453.53
2018-12-24T14:25:46.455Z,99453.66
2018-12-24T14:27:53.668Z,99461.58
2018-12-24T14:30:01.559Z,99446.66
2018-12-24T14:32:09.129Z,99452.17
2018-12-24T14:34:21.433Z,99456.63
2018-12-24T14:36:28.835Z,99455.67
2018-12-24T14:38:36.514Z,99450.11
2018-12-24T14:40:44.135Z,99450.73
2018-12-24T14:42:51.258Z,99448.83
2018-12-24T14:44:58.840Z,99443.48
2018-12-24T14:47:06.677Z,99450.07
2018-12-24T14:49:14.069Z,99453.13
2018-12-24T14:51:21.303Z,99381.50
2018-12-24T14:53:28.661Z,99449.82
2018-12-24T14:55:35.797Z,99444.42
2018-12-24T14:57:43.060Z,99463.72
2018-12-24T14:59:50.472Z,99470.94
2018-12-24T15:01:57.787Z,99478.45
2018-12-24T15:04:04.978Z,99476.99
2018-12-24T15:06:12.393Z,99473.48
2018-12-24T15:08:19.797Z,99463.67
2018-12-24T15:10:27.098Z,99457.09
2018-12-24T15:12:35.014Z,99460.23
2018-12-24T15:14:43.857Z,99455.13
2018-12-24T15:16:52.830Z,99458.75
2018-12-24T15:19:01.533Z,99460.33
2018-12-24T15:21:08.695Z,99469.36
2018-12-24T15:23:15.925Z,99470.30
2018-12-24T15:25:23.431Z,99491.63
2018-12-24T15:27:30.956Z,99491.19
2018-12-24T15:29:38.241Z,99478.60
2018-12-24T15:31:45.576Z,99479.30
2018-12-24T15:33:52.657Z,99491.89
2018-12-24T15:36:01.175Z,99487.67
2018-12-24T15:38:15.586Z,99489.11
2018-12-24T15:40:22.848Z,99489.98
2018-12-24T15:42:32.108Z,99488.61
2018-12-24T15:44:39.760Z,99487.91
2018-12-24T15:46:47.245Z,99484.18
2018-12-24T15:49:30.783Z,99492.41
2018-12-24T15:52:07.470Z,99493.17
2018-12-24T15:54:15.107Z,99481.47
2018-12-24T15:56:22.158Z,99468.78
2018-12-24T15:58:29.520Z,99466.38
2018-12-24T16:00:37.159Z,99488.46
2018-12-24T16:02:45.990Z,99486.30
2018-12-24T16:04:53.497Z,99486.51
2018-12-24T16:07:02.063Z,99484.41
2018-12-24T16:09:10.753Z,99483.37
2018-12-24T16:11:18.159Z,99482.53
2018-12-24T16:13:25.531Z,99478.37
2018-12-24T16:15:51.980Z,99477.63
2018-12-24T16:18:00.205Z,99475.75
2018-12-24T16:20:08.119Z,99477.23
2018-12-24T16:22:15.924Z,99474.91
2018-12-24T16:25:27.721Z,99483.01
2018-12-24T16:27:15.592Z,99477.55
2018-12-24T16:29:23.737Z,99484.57
2018-12-24T16:31:31.880Z,99473.91
2018-12-24T16:33:38.969Z,99480.83
2018-12-24T16:35:46.929Z,99472.72
2018-12-24T16:37:54.143Z,99459.05
2018-12-24T16:40:05.239Z,99454.45
2018-12-24T16:42:12.570Z,99444.51
2018-12-24T16:44:20.320Z,99447.97
2018-12-24T16:46:27.483Z,99450.13
2018-12-24T16:48:34.787Z,99438.41
2018-12-24T16:50:54.056Z,99446.58
2018-12-24T16:53:01.122Z,99447.93
2018-12-24T16:55:09.141Z,99455.39
2018-12-24T16:57:16.499Z,99453.97
2018-12-24T16:59:24.263Z,99464.09
2018-12-24T17:01:31.683Z,99467.34
2018-12-24T17:03:39.333Z,99462.35
2018-12-24T17:05:48.566Z,99461.75
2018-12-24T17:08:10.987Z,99465.30
2018-12-24T17:10:31.518Z,99463.30
2018-12-24T17:12:55.569Z,99459.33
2018-12-24T17:15:23.079Z,99463.70
2018-12-24T17:17:30.849Z,99458.20
2018-12-24T17:19:38.453Z,99463.61
2018-12-24T17:21:46.070Z,99458.48
2018-12-24T17:23:53.502Z,99454.22
2018-12-24T17:26:01.026Z,99449.72
2018-12-24T17:28:09.252Z,99453.84
2018-12-24T17:30:17.188Z,99451.35
2018-12-24T17:32:24.715Z,99445.30
2018-12-24T17:34:32.106Z,99448.42
2018-12-24T17:36:39.374Z,99438.33
2018-12-24T17:38:46.701Z,99431.77
2018-12-24T17:40:53.910Z,99418.97
2018-12-24T17:43:01.299Z,99412.56
2018-12-24T17:45:08.906Z,99414.28
2018-12-24T17:47:16.628Z,99405.58
2018-12-24T17:49:24.168Z,99406.34
2018-12-24T17:51:31.432Z,99403.64
2018-12-24T17:53:39.544Z,99400.67
2018-12-24T17:55:46.872Z,99398.56
2018-12-24T17:57:54.322Z,99402.12
2018-12-24T18:00:01.753Z,99399.19
2018-12-24T18:02:09.164Z,99402.12
2018-12-24T18:04:16.586Z,99402.88
2018-12-24T18:06:23.535Z,99401.59
2018-12-24T18:08:31.148Z,99402.78
2018-12-24T18:10:38.373Z,99395.55
2018-12-24T18:12:46.553Z,99395.33
2018-12-24T18:14:54.049Z,99392.53
2018-12-24T18:17:01.382Z,99400.99
2018-12-24T18:19:08.735Z,99398.78
2018-12-24T18:21:15.747Z,99392.14
2018-12-24T18:23:22.937Z,99389.44
2018-12-24T18:25:32.596Z,99387.80
2018-12-24T18:27:40.049Z,99396.05
2018-12-24T18:29:49.354Z,99385.20
2018-12-24T18:32:04.890Z,99391.55
2018-12-24T18:34:17.711Z,99399.28
2018-12-24T18:36:33.724Z,99400.30
2018-12-24T18:38:41.201Z,99405.85
2018-12-24T18:40:48.491Z,99402.40
2018-12-24T18:42:55.501Z,99407.00
2018-12-24T18:45:02.836Z,99402.31
2018-12-24T18:47:10.450Z,99410.88
2018-12-24T18:49:17.976Z,99404.80
2018-12-24T18:51:25.629Z,99411.98
2018-12-24T18:53:33.635Z,99404.06
2018-12-24T18:55:41.117Z,99389.58
2018-12-24T18:57:48.094Z,99386.34
2018-12-24T18:59:55.301Z,99381.77
2018-12-24T19:02:03.476Z,99383.98
2018-12-24T19:04:10.597Z,99386.39
2018-12-24T19:06:17.753Z,99385.97
2018-12-24T19:08:25.404Z,99388.19
2018-12-24T19:10:33.179Z,99380.89
2018-12-24T19:12:41.238Z,99393.17
2018-12-24T19:14:48.517Z,99397.77
2018-12-24T19:16:55.680Z,99387.23
2018-12-24T19:19:04.116Z,99391.73
2018-12-24T19:21:11.332Z,99385.88
2018-12-24T19:23:19.073Z,99382.64
2018-12-24T19:25:26.319Z,99383.87
2018-12-24T19:27:33.400Z,99377.05
2018-12-24T19:29:40.818Z,99369.09
2018-12-24T19:31:47.972Z,99381.50
2018-12-24T19:33:55.175Z,99384.30
2018-12-24T19:36:02.487Z,99381.91
2018-12-24T19:38:09.744Z,99376.92
2018-12-24T19:40:17.396Z,99367.03
2018-12-24T19:42:24.738Z,99372.85
2018-12-24T19:44:32.817Z,99368.27
2018-12-24T19:46:40.098Z,99364.88
2018-12-24T19:48:48.436Z,99371.59
2018-12-24T19:50:55.670Z,99363.41
2018-12-24T19:53:03.077Z,99363.52
2018-12-24T19:55:10.637Z,99361.41
2018-12-24T19:57:17.949Z,99356.24
2018-12-24T19:59:25.799Z,99349.22
2018-12-24T20:01:33.578Z,99351.75
2018-12-24T20:03:41.262Z,99345.83
2018-12-24T20:05:49.683Z,99346.70
2018-12-24T20:07:57.386Z,99346.06
2018-12-24T20:10:05.446Z,99348.13
2018-12-24T20:12:12.528Z,99347.94
2018-12-24T20:14:21.146Z,99349.14
2018-12-24T20:16:28.450Z,99340.06
2018-12-24T20:18:35.686Z,99355.88
2018-12-24T20:20:43.038Z,99355.23
2018-12-24T20:22:50.157Z,99354.33
2018-12-24T20:24:57.166Z,99355.40
2018-12-24T20:27:05.014Z,99349.12
2018-12-24T20:29:13.696Z,99358.84
2018-12-24T20:31:22.422Z,99362.77
2018-12-24T20:33:30.445Z,99367.35
2018-12-24T20:35:39.098Z,99362.67
2018-12-24T20:37:46.717Z,99366.00
2018-12-24T20:39:54.306Z,99362.54
2018-12-24T20:42:02.773Z,99370.06
2018-12-24T20:44:10.591Z,99371.73
2018-12-24T20:46:18.599Z,99372.77
2018-12-24T20:48:25.936Z,99371.64
2018-12-24T20:50:33.171Z,99376.48
2018-12-24T20:52:40.363Z,99369.95
2018-12-24T20:54:47.725Z,99368.41
2018-12-24T20:56:56.393Z,99365.23
2018-12-24T20:59:03.562Z,99363.67
2018-12-24T21:01:11.610Z,99362.69
2018-12-24T21:03:18.833Z,99371.11
2018-12-24T21:05:26.555Z,99375.97
2018-12-24T21:07:33.902Z,99368.83
2018-12-24T21:09:41.140Z,99375.65
2018-12-24T21:11:49.191Z,99372.55
2018-12-24T21:13:56.550Z,99379.52
2018-12-24T21:16:03.909Z,99374.79
2018-12-24T21:18:15.037Z,99374.98
2018-12-24T21:20:19.738Z,99360.86
2018-12-24T21:22:26.429Z,99362.79
2018-12-24T21:24:34.302Z,99363.05
2018-12-24T21:26:41.035Z,99367.00
2018-12-24T21:28:47.880Z,99365.48
2018-12-24T21:30:55.476Z,99373.01
2018-12-24T21:33:02.736Z,99366.98
2018-12-24T21:35:10.232Z,99372.41
2018-12-24T21:37:18.377Z,99367.73
2018-12-24T21:39:26.467Z,99365.46
2018-12-24T21:41:33.664Z,99364.55
2018-12-24T21:43:40.959Z,99362.97
2018-12-24T21:45:48.329Z,99371.72
2018-12-24T21:47:55.550Z,99369.91
2018-12-24T21:50:03.100Z,99372.88
2018-12-24T21:52:10.416Z,99376.17
2018-12-24T21:54:17.648Z,99376.70
2018-12-24T21:56:26.054Z,99371.52
2018-12-24T21:58:33.258Z,99379.50
2018-12-24T22:00:41.734Z,99376.53
2018-12-24T22:02:49.186Z,99385.81
2018-12-24T22:04:56.434Z,99381.45
2018-12-24T22:07:03.693Z,99383.04
2018-12-24T22:09:11.307Z,99381.20
2018-12-24T22:11:18.329Z,99377.23
2018-12-24T22:13:26.359Z,99371.00
2018-12-24T22:15:33.580Z,99383.02
2018-12-24T22:17:41.060Z,99377.60
2018-12-24T22:19:48.375Z,99383.98
2018-12-24T22:21:55.447Z,99385.44
2018-12-24T22:24:03.682Z,99392.96
2018-12-24T22:26:11.617Z,99390.28
2018-12-24T22:28:18.920Z,99387.76
2018-12-24T22:30:26.281Z,99390.47
2018-12-24T22:32:34.794Z,99396.28
2018-12-24T22:34:42.027Z,99399.91
2018-12-24T22:36:49.081Z,99402.22
2018-12-24T22:38:56.349Z,99401.34
2018-12-24T22:41:03.647Z,99403.16
2018-12-24T22:43:10.953Z,99402.55
2018-12-24T22:45:18.362Z,99409.59
2018-12-24T22:47:25.502Z,99411.38
2018-12-24T22:49:32.966Z,99414.17
2018-12-24T22:51:40.439Z,99417.03
2018-12-24T22:53:47.876Z,99416.17
2018-12-24T22:55:55.608Z,99423.66
2018-12-24T22:58:02.857Z,99419.52
2018-12-24T23:00:14.112Z,99428.80
2018-12-24T23:02:22.600Z,99426.10
2018-12-24T23:04:30.912Z,99433.45
2018-12-24T23:06:38.351Z,99428.58
2018-12-24T23:08:45.683Z,99428.28
2018-12-24T23:13:08.026Z,99429.78
2018-12-24T23:15:15.229Z,99428.20
2018-12-24T23:17:22.525Z,99423.80
2018-12-24T23:19:30.038Z,99424.84
2018-12-24T23:21:37.357Z,99420.38
2018-12-24T23:23:44.389Z,99425.53
2018-12-24T23:25:51.870Z,99424.85
2018-12-24T23:27:59.147Z,99423.66
2018-12-24T23:30:07.224Z,99437.23
2018-12-24T23:32:14.360Z,99428.48
2018-12-24T23:34:21.837Z,99437.65
2018-12-24T23:36:29.260Z,99434.05
2018-12-24T23:38:36.403Z,99435.14
2018-12-24T23:40:44.245Z,99439.44
2018-12-24T23:42:51.617Z,99435.81
2018-12-24T23:44:59.519Z,99438.33
2018-12-24T23:47:06.946Z,99452.71
2018-12-24T23:49:14.222Z,99446.89
2018-12-24T23:51:21.437Z,99457.53
2018-12-24T23:53:28.728Z,99452.52
2018-12-24T23:55:36.530Z,99453.12
2018-12-24T23:57:43.904Z,99457.97
2018-12-24T23:59:51.623Z,99459.16
